Terminal Aerodrome Forecast
Issued by NWS Cleveland, OH

Home | Current Version | Previous Version | Graphics & Text | Print | Product List | Glossary Off
Versions: 1 2 3 4 5 6 7 8 9 10 11 12 13 14 15 16 17

000
FTUS41 KCLE 201139
TAFMFD
TAF
KMFD 201139Z 2012/2112 12010KT 4SM -RA BR OVC020
      TEMPO 2012/2014 2SM -RA BR OVC004
     FM201400 17008KT 4SM BR OVC004
     FM201900 21008KT P6SM OVC007
     FM202200 19006KT P6SM OVC012
     FM210600 16006KT 3SM BR OVC005=

USA.gov is the U.S. government's official web portal to all federal, state and local government web resources and services.